createdAt,value
2023-03-16T00:00:50.099Z,90.97
2023-03-16T00:03:16.532Z,90.77
2023-03-16T00:05:42.945Z,90.64
2023-03-16T00:08:09.458Z,90.41
2023-03-16T00:10:35.955Z,89.88
2023-03-16T00:13:02.431Z,90.77
2023-03-16T00:15:28.864Z,91.15
2023-03-16T00:17:55.470Z,90.67
2023-03-16T00:20:21.881Z,90.31
2023-03-16T00:22:48.367Z,90.14
2023-03-16T00:25:14.825Z,90.16
2023-03-16T00:27:41.360Z,90.48
2023-03-16T00:30:08.299Z,90.25
2023-03-16T00:32:35.608Z,90.92
2023-03-16T00:35:02.423Z,90.67
2023-03-16T00:37:29.158Z,90.48
2023-03-16T00:39:55.792Z,90.84
2023-03-16T00:42:22.338Z,90.26
2023-03-16T00:44:48.796Z,90.70
2023-03-16T00:47:15.210Z,90.84
2023-03-16T00:49:42.216Z,89.90
2023-03-16T00:52:09.022Z,90.50
2023-03-16T00:54:35.461Z,90.81
2023-03-16T00:57:01.987Z,90.32
2023-03-16T00:59:28.489Z,90.96
2023-03-16T01:01:55.108Z,91.68
2023-03-16T01:04:21.594Z,91.75
2023-03-16T01:06:48.001Z,92.42
2023-03-16T01:09:14.409Z,92.99
2023-03-16T01:11:41.362Z,92.33
2023-03-16T01:14:07.953Z,91.90
2023-03-16T01:16:34.448Z,92.01
2023-03-16T01:19:01.033Z,91.77
2023-03-16T01:21:27.622Z,91.36
2023-03-16T01:23:54.182Z,90.94
2023-03-16T01:26:20.923Z,90.65
2023-03-16T01:28:47.403Z,91.40
2023-03-16T01:31:13.937Z,91.12
2023-03-16T01:33:41.575Z,91.57
2023-03-16T01:36:09.622Z,91.42
2023-03-16T01:38:36.136Z,91.71
2023-03-16T01:41:02.567Z,91.05
2023-03-16T01:43:29.433Z,91.20
2023-03-16T01:46:05.076Z,91.01
2023-03-16T01:48:38.967Z,90.50
2023-03-16T01:51:12.315Z,90.17
2023-03-16T01:53:39.219Z,90.53
2023-03-16T01:56:06.124Z,90.39
2023-03-16T01:58:32.563Z,90.43
2023-03-16T02:00:59.097Z,90.30
2023-03-16T02:03:25.635Z,90.55
2023-03-16T02:05:53.417Z,90.58
2023-03-16T02:08:20.035Z,89.91
2023-03-16T02:10:46.526Z,90.51
2023-03-16T02:13:13.096Z,90.99
2023-03-16T02:15:39.553Z,91.44
2023-03-16T02:18:05.976Z,91.73
2023-03-16T02:20:35.519Z,90.92
2023-03-16T02:23:02.195Z,90.16
2023-03-16T02:25:47.428Z,90.12
2023-03-16T02:28:19.736Z,89.85
2023-03-16T02:30:46.730Z,89.92
2023-03-16T02:33:13.367Z,90.88
2023-03-16T02:35:39.886Z,90.56
2023-03-16T02:38:06.332Z,91.53
2023-03-16T02:40:33.222Z,90.88
2023-03-16T02:43:03.661Z,90.35
2023-03-16T02:45:34.644Z,89.99
2023-03-16T02:48:01.641Z,90.12
2023-03-16T02:50:28.291Z,90.56
2023-03-16T02:52:54.956Z,91.29
2023-03-16T02:55:21.438Z,91.08
2023-03-16T02:57:48.172Z,90.27
2023-03-16T03:00:14.700Z,90.27
2023-03-16T03:02:41.173Z,89.94
2023-03-16T03:05:07.730Z,90.60
2023-03-16T03:07:34.168Z,90.11
2023-03-16T03:10:00.621Z,90.11
2023-03-16T03:12:27.029Z,90.02
2023-03-16T03:14:53.407Z,89.94
2023-03-16T03:17:19.901Z,89.89
2023-03-16T03:19:46.336Z,91.06
2023-03-16T03:22:12.747Z,91.23
2023-03-16T03:24:39.112Z,91.08
2023-03-16T03:27:05.791Z,90.54
2023-03-16T03:29:32.645Z,90.21
2023-03-16T03:31:59.155Z,90.46
2023-03-16T03:34:25.655Z,91.39
2023-03-16T03:36:52.083Z,91.82
2023-03-16T03:39:18.482Z,92.17
2023-03-16T03:41:44.884Z,91.97
2023-03-16T03:44:11.307Z,91.90
2023-03-16T03:46:37.892Z,92.03
2023-03-16T03:49:04.401Z,91.51
2023-03-16T03:51:31.671Z,92.47
2023-03-16T03:53:58.535Z,92.53
2023-03-16T03:56:25.067Z,92.78
2023-03-16T03:58:51.587Z,93.01
2023-03-16T04:01:18.059Z,93.92
2023-03-16T04:03:45.253Z,94.26
2023-03-16T04:06:11.801Z,94.73
2023-03-16T04:08:38.254Z,95.45
2023-03-16T04:11:04.721Z,95.39
2023-03-16T04:13:31.236Z,96.63
2023-03-16T04:15:57.994Z,97.13
2023-03-16T04:18:24.576Z,97.94
2023-03-16T04:20:51.078Z,98.75
2023-03-16T04:23:17.564Z,99.08
2023-03-16T04:25:44.026Z,99.70
2023-03-16T04:28:10.713Z,99.86
2023-03-16T04:30:37.139Z,99.88
2023-03-16T04:33:03.548Z,99.88
2023-03-16T04:35:29.983Z,100.00
2023-03-16T04:37:56.720Z,100.00
2023-03-16T04:40:23.216Z,100.00
2023-03-16T04:42:49.718Z,100.00
2023-03-16T04:45:16.228Z,100.00
2023-03-16T04:47:42.654Z,100.00
2023-03-16T04:50:09.611Z,100.00
2023-03-16T04:52:36.053Z,100.00
2023-03-16T04:55:02.474Z,100.00
2023-03-16T04:57:28.938Z,100.00
2023-03-16T04:59:55.354Z,100.00
2023-03-16T05:02:21.717Z,99.99
2023-03-16T05:04:48.204Z,100.00
2023-03-16T05:07:14.619Z,100.00
2023-03-16T05:09:41.084Z,100.00
2023-03-16T05:12:07.688Z,100.00
2023-03-16T05:14:34.126Z,100.00
2023-03-16T05:17:00.510Z,100.00
2023-03-16T05:19:26.934Z,100.00
2023-03-16T05:21:53.346Z,100.00
2023-03-16T05:24:19.759Z,100.00
2023-03-16T05:26:46.160Z,100.00
2023-03-16T05:29:12.724Z,99.63
2023-03-16T05:31:39.286Z,99.60
2023-03-16T05:34:05.673Z,99.25
2023-03-16T05:36:32.520Z,99.49
2023-03-16T05:38:59.618Z,98.76
2023-03-16T05:41:26.566Z,99.06
2023-03-16T05:43:52.938Z,98.54
2023-03-16T05:46:20.938Z,98.67
2023-03-16T05:48:47.420Z,98.88
2023-03-16T05:51:13.857Z,98.70
2023-03-16T05:53:40.255Z,98.83
2023-03-16T05:56:07.439Z,98.84
2023-03-16T05:58:34.063Z,98.84
2023-03-16T06:01:00.554Z,99.05
2023-03-16T06:03:27.014Z,99.16
2023-03-16T06:05:53.400Z,98.84
2023-03-16T06:08:19.790Z,98.63
2023-03-16T06:10:46.659Z,99.11
2023-03-16T06:13:13.071Z,98.84
2023-03-16T06:15:39.616Z,98.62
2023-03-16T06:18:06.107Z,98.36
2023-03-16T06:20:32.604Z,98.58
2023-03-16T06:22:59.060Z,98.85
2023-03-16T06:25:25.429Z,98.38
2023-03-16T06:27:53.527Z,97.87
2023-03-16T06:30:20.045Z,98.11
2023-03-16T06:32:46.581Z,98.17
2023-03-16T06:35:13.223Z,97.95
2023-03-16T06:37:39.658Z,97.91
2023-03-16T06:40:08.005Z,97.42
2023-03-16T06:42:34.400Z,97.30
2023-03-16T06:45:00.793Z,97.28
2023-03-16T06:47:27.337Z,97.73
2023-03-16T06:49:55.446Z,97.23
2023-03-16T06:52:21.976Z,97.48
2023-03-16T06:54:48.452Z,96.76
2023-03-16T06:57:15.086Z,96.18
2023-03-16T06:59:41.569Z,96.21
2023-03-16T07:02:09.252Z,96.37
2023-03-16T07:04:36.690Z,95.52
2023-03-16T07:07:06.436Z,95.10
2023-03-16T07:09:32.849Z,95.12
2023-03-16T07:11:59.364Z,95.10
2023-03-16T07:14:25.741Z,95.47
2023-03-16T07:16:52.444Z,95.98
2023-03-16T07:19:19.411Z,96.03
2023-03-16T07:21:45.878Z,96.13
2023-03-16T07:24:14.623Z,95.65
2023-03-16T07:26:41.769Z,95.33
2023-03-16T07:29:08.339Z,94.96
2023-03-16T07:31:34.857Z,94.61
2023-03-16T07:34:01.672Z,94.23
2023-03-16T07:36:28.794Z,93.99
2023-03-16T07:38:55.323Z,93.92
2023-03-16T07:41:21.814Z,93.97
2023-03-16T07:43:48.393Z,93.69
2023-03-16T07:46:14.898Z,93.66
2023-03-16T07:48:41.416Z,94.09
2023-03-16T07:51:08.286Z,93.91
2023-03-16T07:53:35.348Z,93.83
2023-03-16T07:56:01.836Z,93.88
2023-03-16T07:58:28.272Z,94.02
2023-03-16T08:00:58.313Z,93.98
2023-03-16T08:03:25.127Z,93.50
2023-03-16T08:05:52.669Z,93.12
2023-03-16T08:08:19.262Z,92.63
2023-03-16T08:10:47.313Z,91.96
2023-03-16T08:13:15.895Z,92.55
2023-03-16T08:15:45.387Z,94.18
2023-03-16T08:18:11.852Z,94.08
2023-03-16T08:20:38.299Z,94.14
2023-03-16T08:23:04.674Z,93.62
2023-03-16T08:25:31.611Z,93.03
2023-03-16T08:27:58.097Z,92.66
2023-03-16T08:30:24.597Z,92.24
2023-03-16T08:32:51.122Z,92.84
2023-03-16T08:35:18.236Z,93.13
2023-03-16T08:37:44.703Z,93.42
2023-03-16T08:40:11.353Z,93.41
2023-03-16T08:42:37.867Z,92.57
2023-03-16T08:45:05.580Z,92.67
2023-03-16T08:47:32.108Z,92.84
2023-03-16T08:49:58.552Z,93.35
2023-03-16T08:52:25.048Z,93.49
2023-03-16T08:55:02.446Z,92.63
2023-03-16T08:57:30.165Z,91.47
2023-03-16T08:59:57.290Z,92.00
2023-03-16T09:02:23.718Z,92.19
2023-03-16T09:04:50.228Z,92.23
2023-03-16T09:07:17.594Z,91.55
2023-03-16T09:09:44.156Z,92.29
2023-03-16T09:12:14.023Z,91.99
2023-03-16T09:14:40.460Z,91.63
2023-03-16T09:17:08.151Z,91.57
2023-03-16T09:19:49.973Z,90.19
2023-03-16T09:22:18.268Z,90.08
2023-03-16T09:24:45.138Z,90.78
2023-03-16T09:27:11.604Z,90.37
2023-03-16T09:29:38.219Z,89.87
2023-03-16T09:32:04.729Z,88.14
2023-03-16T09:34:33.340Z,87.50
2023-03-16T09:37:00.198Z,86.43
2023-03-16T09:39:26.602Z,86.72
2023-03-16T09:42:01.611Z,86.15
2023-03-16T09:44:31.242Z,85.93
2023-03-16T09:46:58.075Z,86.48
2023-03-16T09:49:24.695Z,86.19
2023-03-16T09:51:51.102Z,84.94
2023-03-16T09:54:23.228Z,84.25
2023-03-16T09:56:49.785Z,83.07
2023-03-16T09:59:16.208Z,80.72
2023-03-16T10:02:01.594Z,78.45
2023-03-16T10:04:37.831Z,77.51
2023-03-16T10:07:05.050Z,78.95
2023-03-16T10:09:36.138Z,73.67
2023-03-16T10:12:03.088Z,70.64
2023-03-16T10:14:32.508Z,70.58
2023-03-16T10:17:00.935Z,69.43
2023-03-16T10:19:30.443Z,69.42
2023-03-16T10:21:57.106Z,73.64
2023-03-16T10:24:45.069Z,70.84
2023-03-16T10:27:23.089Z,67.76
2023-03-16T10:29:49.531Z,62.83
2023-03-16T10:32:16.635Z,63.96
2023-03-16T10:34:48.699Z,59.61
2023-03-16T10:37:15.151Z,63.18
2023-03-16T10:39:41.599Z,61.90
2023-03-16T10:42:09.749Z,60.02
2023-03-16T10:44:39.267Z,64.43
2023-03-16T10:47:06.009Z,64.29
2023-03-16T10:49:36.736Z,63.12
2023-03-16T10:52:07.048Z,63.96
2023-03-16T10:54:33.973Z,65.34
2023-03-16T10:57:00.425Z,66.50
2023-03-16T10:59:33.825Z,65.15
2023-03-16T11:02:05.306Z,63.18
2023-03-16T11:04:32.455Z,62.29
2023-03-16T11:06:58.899Z,62.46
2023-03-16T11:09:32.100Z,63.31
2023-03-16T11:12:00.268Z,63.19
2023-03-16T11:14:27.401Z,63.03
2023-03-16T11:17:07.330Z,63.29
2023-03-16T11:19:34.110Z,63.74
2023-03-16T11:22:00.483Z,62.21
2023-03-16T11:24:45.372Z,62.78
2023-03-16T11:27:15.577Z,62.90
2023-03-16T11:29:46.158Z,64.18
2023-03-16T11:32:15.392Z,64.20
2023-03-16T11:34:41.947Z,64.09
2023-03-16T11:37:26.963Z,58.42
2023-03-16T11:40:12.999Z,63.23
2023-03-16T11:42:41.936Z,63.20
2023-03-16T11:45:11.290Z,62.19
2023-03-16T11:47:53.995Z,60.35
2023-03-16T11:50:25.595Z,60.93
2023-03-16T11:52:51.983Z,59.32
2023-03-16T11:55:18.890Z,59.77
2023-03-16T11:57:51.989Z,59.25
2023-03-16T12:00:20.883Z,58.08
2023-03-16T12:03:10.838Z,60.04
2023-03-16T12:05:39.705Z,58.47
2023-03-16T12:08:23.908Z,60.24
2023-03-16T12:10:53.386Z,58.16
2023-03-16T12:13:24.903Z,57.11
2023-03-16T12:15:54.888Z,57.36
2023-03-16T12:18:26.309Z,56.80
2023-03-16T12:20:57.855Z,55.50
2023-03-16T12:23:27.858Z,55.93
2023-03-16T12:25:55.792Z,56.20
2023-03-16T12:28:27.943Z,58.38
2023-03-16T12:30:54.345Z,59.93
2023-03-16T12:33:24.404Z,58.87
2023-03-16T12:35:50.796Z,58.02
2023-03-16T12:38:29.571Z,58.75
2023-03-16T12:40:58.837Z,59.04
2023-03-16T12:43:31.891Z,59.21
2023-03-16T12:46:20.863Z,58.38
2023-03-16T12:48:47.908Z,56.20
2023-03-16T12:51:14.334Z,57.42
2023-03-16T12:53:40.708Z,58.22
2023-03-16T12:56:07.263Z,59.37
2023-03-16T12:58:33.670Z,60.94
2023-03-16T13:01:00.312Z,60.28
2023-03-16T13:03:26.910Z,54.44
2023-03-16T13:05:57.378Z,54.79
2023-03-16T13:08:23.796Z,56.48
2023-03-16T13:11:03.893Z,55.94
2023-03-16T13:13:30.433Z,56.73
2023-03-16T13:16:07.820Z,52.07
2023-03-16T13:18:35.745Z,52.92
2023-03-16T13:21:13.254Z,54.10
2023-03-16T13:23:59.836Z,49.52
2023-03-16T13:26:31.230Z,50.18
2023-03-16T13:28:57.750Z,50.39
2023-03-16T13:31:24.761Z,50.79
2023-03-16T13:33:53.822Z,49.27
2023-03-16T13:36:21.688Z,50.14
2023-03-16T13:39:01.792Z,48.85
2023-03-16T13:41:29.705Z,48.49
2023-03-16T13:43:56.168Z,50.50
2023-03-16T13:46:27.748Z,50.80
2023-03-16T13:48:54.194Z,48.09
2023-03-16T13:51:21.147Z,47.84
2023-03-16T13:53:48.712Z,47.28
2023-03-16T13:56:15.278Z,50.36
2023-03-16T13:58:43.178Z,48.52
2023-03-16T14:01:36.091Z,49.86
2023-03-16T14:04:04.651Z,48.05
2023-03-16T14:06:31.442Z,47.83
2023-03-16T14:09:02.642Z,47.99
2023-03-16T14:11:29.199Z,48.22
2023-03-16T14:13:57.045Z,47.95
2023-03-16T14:16:24.487Z,47.35
2023-03-16T14:19:08.288Z,48.23
2023-03-16T14:21:34.752Z,50.60
2023-03-16T14:24:04.874Z,49.33
2023-03-16T14:26:43.720Z,49.46
2023-03-16T14:29:25.542Z,49.87
2023-03-16T14:31:52.652Z,50.15
2023-03-16T14:34:26.746Z,48.61
2023-03-16T14:36:53.179Z,49.90
2023-03-16T14:39:20.103Z,47.50
2023-03-16T14:41:50.065Z,47.45
2023-03-16T14:44:23.303Z,48.65
2023-03-16T14:46:51.364Z,49.26
2023-03-16T14:49:27.768Z,49.22
2023-03-16T14:51:55.603Z,46.72
2023-03-16T14:54:22.492Z,48.10
2023-03-16T14:56:53.638Z,47.78
2023-03-16T14:59:20.593Z,47.39
2023-03-16T15:01:47.231Z,47.61
2023-03-16T15:04:17.742Z,47.52
2023-03-16T15:06:44.148Z,47.12
2023-03-16T15:09:31.237Z,45.03
2023-03-16T15:11:57.720Z,46.48
2023-03-16T15:14:24.107Z,47.07
2023-03-16T15:16:50.487Z,46.91
2023-03-16T15:19:16.896Z,47.30
2023-03-16T15:21:43.354Z,47.82
2023-03-16T15:24:11.549Z,47.26
2023-03-16T15:26:38.006Z,46.67
2023-03-16T15:29:06.304Z,47.68
2023-03-16T15:31:32.820Z,47.35
2023-03-16T15:33:59.390Z,48.75
2023-03-16T15:36:26.517Z,47.92
2023-03-16T15:38:53.275Z,48.92
2023-03-16T15:41:19.764Z,48.31
2023-03-16T15:43:46.118Z,49.67
2023-03-16T15:46:12.942Z,47.99
2023-03-16T15:48:40.091Z,48.00
2023-03-16T15:51:07.741Z,49.45
2023-03-16T15:53:41.460Z,48.74
2023-03-16T15:56:11.233Z,47.92
2023-03-16T15:58:37.738Z,47.07
2023-03-16T16:01:04.442Z,46.49
2023-03-16T16:03:31.019Z,47.38
2023-03-16T16:05:57.504Z,46.79
2023-03-16T16:08:24.026Z,47.31
2023-03-16T16:10:50.459Z,48.78
2023-03-16T16:13:31.177Z,47.74
2023-03-16T16:16:04.318Z,48.82
2023-03-16T16:18:31.434Z,47.95
2023-03-16T16:20:58.222Z,49.20
2023-03-16T16:23:24.776Z,47.76
2023-03-16T16:25:51.783Z,48.24
2023-03-16T16:28:19.508Z,48.53
2023-03-16T16:30:46.025Z,48.39
2023-03-16T16:33:24.899Z,49.67
2023-03-16T16:35:52.081Z,48.96
2023-03-16T16:38:18.598Z,51.04
2023-03-16T16:40:45.008Z,49.87
2023-03-16T16:43:20.623Z,51.26
2023-03-16T16:45:47.468Z,51.65
2023-03-16T16:48:20.931Z,51.74
2023-03-16T16:50:47.483Z,53.13
2023-03-16T16:53:16.721Z,52.94
2023-03-16T16:55:43.121Z,54.22
2023-03-16T16:58:18.520Z,55.78
2023-03-16T17:00:54.813Z,56.20
2023-03-16T17:03:22.795Z,56.72
2023-03-16T17:05:49.186Z,55.64
2023-03-16T17:08:16.826Z,56.73
2023-03-16T17:10:43.320Z,57.45
2023-03-16T17:13:17.909Z,58.26
2023-03-16T17:15:44.505Z,58.74
2023-03-16T17:18:11.255Z,59.50
2023-03-16T17:20:37.648Z,59.79
2023-03-16T17:23:04.831Z,59.72
2023-03-16T17:25:41.885Z,60.91
2023-03-16T17:28:08.378Z,60.46
2023-03-16T17:30:34.932Z,60.60
2023-03-16T17:33:04.834Z,60.27
2023-03-16T17:35:31.776Z,61.62
2023-03-16T17:37:58.449Z,62.37
2023-03-16T17:40:24.899Z,65.11
2023-03-16T17:42:51.360Z,67.36
2023-03-16T17:45:20.057Z,70.82
2023-03-16T17:47:46.611Z,72.80
2023-03-16T17:50:23.555Z,73.00
2023-03-16T17:52:50.605Z,73.98
2023-03-16T17:55:17.236Z,74.38
2023-03-16T17:57:43.707Z,72.97
2023-03-16T18:00:24.318Z,73.38
2023-03-16T18:02:51.792Z,74.54
2023-03-16T18:05:19.106Z,75.20
2023-03-16T18:07:45.873Z,76.64
2023-03-16T18:10:19.890Z,76.75
2023-03-16T18:12:46.311Z,76.88
2023-03-16T18:15:16.292Z,76.65
2023-03-16T18:17:42.742Z,77.40
2023-03-16T18:20:22.395Z,77.00
2023-03-16T18:22:49.043Z,77.88
2023-03-16T18:25:25.023Z,77.63
2023-03-16T18:27:51.381Z,78.35
2023-03-16T18:30:18.794Z,77.85
2023-03-16T18:32:45.833Z,77.95
2023-03-16T18:35:15.649Z,78.57
2023-03-16T18:37:42.084Z,78.88
2023-03-16T18:40:10.798Z,79.38
2023-03-16T18:42:37.791Z,79.09
2023-03-16T18:45:04.504Z,79.87
2023-03-16T18:47:31.039Z,79.56
2023-03-16T18:49:57.441Z,79.49
2023-03-16T18:52:24.742Z,78.91
2023-03-16T18:54:51.512Z,79.10
2023-03-16T18:57:25.299Z,78.32
2023-03-16T18:59:52.770Z,78.90
2023-03-16T19:02:25.329Z,78.41
2023-03-16T19:04:52.301Z,78.99
2023-03-16T19:07:23.142Z,78.41
2023-03-16T19:09:49.616Z,77.99
2023-03-16T19:12:17.069Z,75.72
2023-03-16T19:14:43.445Z,74.19
2023-03-16T19:17:09.860Z,74.51
2023-03-16T19:19:36.272Z,71.64
2023-03-16T19:22:05.709Z,67.40
2023-03-16T19:24:34.481Z,69.63
2023-03-16T19:27:01.039Z,68.03
2023-03-16T19:29:33.917Z,67.69
2023-03-16T19:32:00.547Z,68.38
2023-03-16T19:34:27.142Z,67.70
2023-03-16T19:36:53.552Z,67.81
2023-03-16T19:39:20.001Z,68.00
2023-03-16T19:41:47.321Z,67.52
2023-03-16T19:44:17.443Z,68.96
2023-03-16T19:46:44.020Z,67.86
2023-03-16T19:49:28.619Z,67.43
2023-03-16T19:51:55.660Z,67.28
2023-03-16T19:54:22.729Z,66.65
2023-03-16T19:56:49.395Z,67.11
2023-03-16T19:59:15.820Z,67.08
2023-03-16T20:01:42.360Z,67.92
2023-03-16T20:04:17.486Z,67.59
2023-03-16T20:06:44.631Z,68.04
2023-03-16T20:09:11.033Z,67.94
2023-03-16T20:11:37.844Z,68.34
2023-03-16T20:14:04.224Z,69.32
2023-03-16T20:16:34.669Z,66.11
2023-03-16T20:19:02.150Z,67.62
2023-03-16T20:21:28.765Z,69.35
2023-03-16T20:23:55.234Z,69.31
2023-03-16T20:26:28.659Z,69.58
2023-03-16T20:28:55.130Z,69.65
2023-03-16T20:31:24.624Z,69.01
2023-03-16T20:33:51.562Z,69.51
2023-03-16T20:36:18.147Z,69.80
2023-03-16T20:38:44.607Z,69.27
2023-03-16T20:41:16.454Z,68.26
2023-03-16T20:43:42.888Z,66.83
2023-03-16T20:46:10.082Z,69.81
2023-03-16T20:48:36.678Z,69.21
2023-03-16T20:51:03.542Z,70.83
2023-03-16T20:53:29.993Z,71.56
2023-03-16T20:55:56.481Z,71.56
2023-03-16T20:58:23.806Z,71.61
2023-03-16T21:00:50.514Z,71.77
2023-03-16T21:03:21.817Z,71.23
2023-03-16T21:05:48.607Z,71.02
2023-03-16T21:08:15.154Z,71.13
2023-03-16T21:10:42.009Z,70.65
2023-03-16T21:13:14.867Z,71.01
2023-03-16T21:15:41.266Z,70.26
2023-03-16T21:18:10.425Z,70.26
2023-03-16T21:20:36.788Z,70.83
2023-03-16T21:23:03.163Z,70.82
2023-03-16T21:25:34.568Z,69.21
2023-03-16T21:28:02.168Z,68.56
2023-03-16T21:30:29.576Z,69.94
2023-03-16T21:32:56.117Z,68.88
2023-03-16T21:35:24.116Z,71.09
2023-03-16T21:37:50.626Z,71.83
2023-03-16T21:40:17.760Z,71.21
2023-03-16T21:42:44.360Z,71.68
2023-03-16T21:45:10.998Z,72.12
2023-03-16T21:47:37.419Z,72.29
2023-03-16T21:50:09.719Z,73.56
2023-03-16T21:52:36.061Z,73.76
2023-03-16T21:55:03.336Z,74.01
2023-03-16T21:57:29.813Z,74.19
2023-03-16T21:59:56.200Z,73.57
2023-03-16T22:02:23.393Z,73.42
2023-03-16T22:04:50.306Z,73.13
2023-03-16T22:07:16.676Z,73.09
2023-03-16T22:09:43.106Z,72.09
2023-03-16T22:12:10.376Z,71.91
2023-03-16T22:14:36.947Z,72.60
2023-03-16T22:17:03.542Z,72.73
2023-03-16T22:19:29.968Z,72.19
2023-03-16T22:21:56.514Z,72.14
2023-03-16T22:24:23.709Z,73.07
2023-03-16T22:26:50.318Z,73.23
2023-03-16T22:29:27.028Z,73.29
2023-03-16T22:31:55.988Z,74.34
2023-03-16T22:34:33.020Z,74.52
2023-03-16T22:36:59.512Z,74.13
2023-03-16T22:39:25.951Z,73.93
2023-03-16T22:41:52.361Z,74.43
2023-03-16T22:44:22.416Z,75.01
2023-03-16T22:46:49.128Z,75.17
2023-03-16T22:49:23.216Z,75.82
2023-03-16T22:51:49.980Z,75.98
2023-03-16T22:54:16.843Z,76.25
2023-03-16T22:56:44.212Z,76.09
2023-03-16T22:59:14.848Z,76.39
2023-03-16T23:01:41.970Z,76.17
2023-03-16T23:04:15.134Z,75.40
2023-03-16T23:06:41.850Z,75.71
2023-03-16T23:09:09.526Z,76.10
2023-03-16T23:11:35.911Z,75.98
2023-03-16T23:14:02.483Z,77.68
2023-03-16T23:16:29.897Z,78.50
2023-03-16T23:18:56.387Z,78.70
2023-03-16T23:21:23.312Z,78.36
2023-03-16T23:24:02.599Z,78.87
2023-03-16T23:26:30.221Z,78.50
2023-03-16T23:28:57.123Z,79.27
2023-03-16T23:31:23.839Z,78.24
2023-03-16T23:33:50.292Z,78.55
2023-03-16T23:36:16.679Z,78.98
2023-03-16T23:38:43.189Z,79.78
2023-03-16T23:41:10.398Z,79.76
2023-03-16T23:43:37.233Z,79.75
2023-03-16T23:46:03.670Z,79.04
2023-03-16T23:48:30.221Z,78.67
2023-03-16T23:50:56.733Z,78.83
2023-03-16T23:53:23.222Z,78.66
2023-03-16T23:55:49.851Z,78.25
2023-03-16T23:58:16.299Z,78.74
